createdAt,value
2018-04-10T00:02:04.232Z,17.93
2018-04-10T00:04:31.756Z,18.30
2018-04-10T00:06:59.264Z,17.63
2018-04-10T00:09:26.792Z,18.30
2018-04-10T00:11:55.059Z,17.90
2018-04-10T00:14:23.324Z,18.13
2018-04-10T00:16:50.884Z,17.40
2018-04-10T00:19:18.383Z,17.67
2018-04-10T00:21:45.940Z,17.50
2018-04-10T00:24:14.187Z,19.10
2018-04-10T00:26:42.452Z,17.40
2018-04-10T00:29:10.744Z,18.40
2018-04-10T00:31:39.015Z,18.50
2018-04-10T00:34:07.321Z,18.50
2018-04-10T00:36:34.827Z,16.60
2018-04-10T00:39:02.352Z,17.70
2018-04-10T00:41:29.852Z,18.73
2018-04-10T00:43:57.352Z,19.67
2018-04-10T00:46:24.883Z,17.50
2018-04-10T00:48:53.160Z,18.37
2018-04-10T00:51:21.452Z,19.63
2018-04-10T00:53:49.716Z,19.93
2018-04-10T00:56:18.008Z,19.40
2018-04-10T00:58:46.272Z,20.20
2018-04-10T01:01:14.536Z,19.77
2018-04-10T01:03:42.828Z,18.83
2018-04-10T01:06:11.092Z,18.97
2018-04-10T01:08:38.616Z,19.90
2018-04-10T01:11:06.115Z,17.93
2018-04-10T01:13:34.404Z,20.13
2018-04-10T01:16:02.677Z,17.63
2018-04-10T01:18:30.949Z,18.23
2018-04-10T01:20:59.240Z,19.03
2018-04-10T01:23:26.746Z,16.80
2018-04-10T01:25:54.268Z,17.93
2018-04-10T01:28:21.774Z,18.23
2018-04-10T01:30:50.816Z,19.10
2018-04-10T01:33:18.324Z,19.30
2018-04-10T01:35:45.828Z,18.77
2018-04-10T01:38:13.352Z,18.50
2018-04-10T01:40:40.860Z,19.37
2018-04-10T01:43:08.380Z,19.17
2018-04-10T01:45:36.652Z,18.70
2018-04-10T01:48:04.199Z,18.87
2018-04-10T01:50:31.700Z,19.50
2018-04-10T01:52:59.200Z,18.33
2018-04-10T01:55:26.720Z,18.20
2018-04-10T01:57:54.220Z,18.03
2018-04-10T02:00:21.740Z,18.13
2018-04-10T02:02:49.253Z,19.93
2018-04-10T02:05:16.756Z,18.77
2018-04-10T02:07:44.281Z,18.37
2018-04-10T02:10:18.423Z,18.40
2018-04-10T02:15:54.360Z,17.60
2018-04-10T02:18:27.636Z,17.73
2018-04-10T02:20:55.180Z,18.53
2018-04-10T02:23:22.680Z,17.87
2018-04-10T02:25:50.184Z,18.60
2018-04-10T02:28:17.711Z,18.27
2018-04-10T02:30:45.980Z,18.77
2018-04-10T02:33:14.271Z,17.93
2018-04-10T02:35:42.536Z,19.23
2018-04-10T02:38:10.840Z,17.73
2018-04-10T02:40:38.340Z,17.10
2018-04-10T02:43:05.840Z,17.57
2018-04-10T02:45:34.131Z,17.03
2018-04-10T02:48:01.638Z,18.40
2018-04-10T02:50:29.169Z,17.73
2018-04-10T02:52:56.672Z,21.27
2018-04-10T02:55:24.964Z,18.43
2018-04-10T02:57:53.228Z,18.20
2018-04-10T03:00:22.261Z,18.77
2018-04-10T03:02:49.759Z,17.73
2018-04-10T03:05:17.259Z,18.07
2018-04-10T03:07:45.548Z,18.30
2018-04-10T03:10:13.048Z,17.50
2018-04-10T03:12:40.576Z,18.03
2018-04-10T03:15:08.075Z,17.37
2018-04-10T03:17:35.592Z,17.90
2018-04-10T03:20:03.092Z,17.77
2018-04-10T03:22:30.595Z,17.90
2018-04-10T03:24:58.125Z,17.90
2018-04-10T03:27:25.628Z,17.50
2018-04-10T03:29:53.152Z,18.70
2018-04-10T03:32:21.416Z,18.00
2018-04-10T03:34:48.940Z,17.67
2018-04-10T03:37:16.448Z,18.33
2018-04-10T03:39:44.716Z,17.60
2018-04-10T03:42:13.006Z,17.87
2018-04-10T03:44:41.272Z,17.50
2018-04-10T03:47:09.564Z,18.40
2018-04-10T03:49:37.836Z,17.80
2018-04-10T03:52:06.129Z,18.40
2018-04-10T03:54:33.628Z,18.57
2018-04-10T03:57:01.128Z,18.10
2018-04-10T03:59:29.416Z,18.37
2018-04-10T04:01:56.920Z,18.13
2018-04-10T04:04:24.444Z,18.20
2018-04-10T04:06:51.944Z,17.23
2018-04-10T04:09:19.441Z,16.83
2018-04-10T04:11:47.728Z,18.20
2018-04-10T04:14:15.248Z,17.27
2018-04-10T04:16:54.680Z,17.93
2018-04-10T04:19:34.217Z,17.63
2018-04-10T04:22:13.428Z,17.40
2018-04-10T04:24:40.923Z,19.03
2018-04-10T04:27:08.419Z,18.17
2018-04-10T04:29:35.943Z,18.27
2018-04-10T04:32:04.948Z,19.37
2018-04-10T04:34:33.247Z,18.23
2018-04-10T04:37:00.748Z,18.00
2018-04-10T04:39:28.252Z,18.60
2018-04-10T04:41:56.544Z,19.53
2018-04-10T04:44:24.044Z,18.40
2018-04-10T04:46:51.568Z,18.87
2018-04-10T04:49:19.069Z,18.60
2018-04-10T04:51:46.569Z,18.67
2018-04-10T04:54:14.093Z,18.10
2018-04-10T04:56:41.601Z,18.30
2018-04-10T04:59:09.124Z,17.90
2018-04-10T05:01:37.388Z,18.43
2018-04-10T05:04:04.888Z,18.80
2018-04-10T05:06:32.416Z,18.00
2018-04-10T05:09:00.696Z,17.30
2018-04-10T05:11:28.984Z,17.70
2018-04-10T05:13:57.272Z,18.20
2018-04-10T05:16:24.776Z,18.73
2018-04-10T05:18:52.304Z,20.57
2018-04-10T05:21:19.808Z,19.97
2018-04-10T05:23:47.332Z,18.20
2018-04-10T05:26:14.836Z,19.70
2018-04-10T05:28:43.104Z,18.77
2018-04-10T05:31:10.628Z,18.73
2018-04-10T05:33:38.128Z,17.40
2018-04-10T05:36:06.432Z,18.83
2018-04-10T05:38:33.937Z,19.20
2018-04-10T05:41:01.488Z,21.50
2018-04-10T05:43:29.012Z,20.27
2018-04-10T05:45:56.512Z,20.30
2018-04-10T05:48:24.037Z,19.43
2018-04-10T05:50:51.540Z,18.87
2018-04-10T05:53:19.040Z,19.90
2018-04-10T05:55:47.329Z,19.93
2018-04-10T05:58:14.824Z,19.27
2018-04-10T06:00:42.344Z,20.07
2018-04-10T06:03:09.844Z,19.40
2018-04-10T06:05:37.344Z,21.43
2018-04-10T06:08:05.632Z,19.20
2018-04-10T06:10:33.135Z,20.00
2018-04-10T06:13:00.661Z,20.23
2018-04-10T06:15:28.160Z,18.63
2018-04-10T06:17:55.660Z,18.60
2018-04-10T06:20:23.193Z,19.47
2018-04-10T06:22:50.692Z,17.93
2018-04-10T06:25:18.216Z,19.50
2018-04-10T06:27:46.484Z,20.57
2018-04-10T06:30:14.008Z,19.90
2018-04-10T06:32:41.510Z,19.33
2018-04-10T06:35:09.775Z,19.87
2018-04-10T06:37:37.296Z,18.27
2018-04-10T06:40:04.795Z,18.80
2018-04-10T06:42:32.320Z,18.73
2018-04-10T06:44:59.822Z,17.80
2018-04-10T06:47:28.089Z,18.07
2018-04-10T06:49:55.612Z,17.63
2018-04-10T06:52:23.112Z,16.87
2018-04-10T06:54:52.146Z,18.23
2018-04-10T06:57:19.648Z,17.60
2018-04-10T06:59:47.152Z,17.63
2018-04-10T07:02:14.695Z,17.37
2018-04-10T07:04:42.964Z,18.20
2018-04-10T07:07:11.260Z,18.23
2018-04-10T07:09:39.524Z,18.00
2018-04-10T07:12:07.792Z,18.27
2018-04-10T07:14:36.080Z,18.07
2018-04-10T07:17:04.349Z,17.07
2018-04-10T07:19:32.641Z,16.43
2018-04-10T07:22:00.155Z,16.53
2018-04-10T07:24:27.763Z,15.60
2018-04-10T07:26:55.344Z,15.87
2018-04-10T07:29:22.844Z,15.10
2018-04-10T07:31:50.372Z,16.03
2018-04-10T07:34:17.872Z,15.07
2018-04-10T07:36:46.141Z,14.80
2018-04-10T07:39:15.172Z,14.93
2018-04-10T07:41:42.673Z,14.77
2018-04-10T07:44:10.199Z,15.33
2018-04-10T07:46:37.699Z,15.90
2018-04-10T07:49:05.224Z,15.30
2018-04-10T07:51:32.724Z,15.23
2018-04-10T07:54:00.226Z,15.57
2018-04-10T07:56:27.769Z,15.00
2018-04-10T07:58:56.036Z,13.90
2018-04-10T08:01:24.329Z,15.07
2018-04-10T08:03:52.596Z,14.33
2018-04-10T08:06:20.885Z,15.50
2018-04-10T08:08:48.389Z,15.90
2018-04-10T08:11:15.898Z,15.50
2018-04-10T08:13:44.193Z,14.60
2018-04-10T08:16:11.696Z,14.60
2018-04-10T08:18:39.220Z,14.40
2018-04-10T08:21:06.730Z,13.83
2018-04-10T08:23:34.264Z,13.93
2018-04-10T08:26:01.761Z,14.53
2018-04-10T08:28:30.029Z,14.50
2018-04-10T08:30:58.316Z,15.27
2018-04-10T08:33:26.584Z,14.00
2018-04-10T08:35:54.871Z,15.40
2018-04-10T08:38:23.142Z,16.37
2018-04-10T08:40:51.427Z,16.10
2018-04-10T08:43:19.696Z,16.20
2018-04-10T08:45:47.963Z,15.63
2018-04-10T08:48:16.257Z,15.37
2018-04-10T08:50:44.523Z,14.60
2018-04-10T08:53:12.812Z,14.40
2018-04-10T08:55:40.316Z,14.77
2018-04-10T08:58:07.846Z,13.87
2018-04-10T09:00:35.353Z,15.20
2018-04-10T09:03:02.875Z,15.77
2018-04-10T09:05:30.693Z,14.77
2018-04-10T09:07:58.200Z,15.00
2018-04-10T09:10:25.723Z,14.93
2018-04-10T09:12:53.989Z,14.97
2018-04-10T09:15:22.281Z,15.10
2018-04-10T09:17:49.794Z,13.97
2018-04-10T09:20:17.316Z,15.03
2018-04-10T09:22:44.817Z,13.20
2018-04-10T09:25:12.342Z,13.67
2018-04-10T09:27:39.848Z,14.23
2018-04-10T09:30:07.349Z,13.93
2018-04-10T09:32:34.877Z,11.83
2018-04-10T09:35:03.144Z,11.53
2018-04-10T09:37:30.664Z,11.80
2018-04-10T09:39:58.163Z,11.50
2018-04-10T09:42:25.684Z,11.20
2018-04-10T09:44:53.183Z,11.23
2018-04-10T09:47:20.689Z,11.20
2018-04-10T09:49:48.211Z,9.87
2018-04-10T09:52:16.472Z,8.33
2018-04-10T09:54:43.991Z,7.40
2018-04-10T09:57:11.493Z,9.40
2018-04-10T09:59:39.016Z,9.20
2018-04-10T10:02:06.512Z,8.33
2018-04-10T10:04:34.020Z,9.50
2018-04-10T10:07:02.407Z,8.40
2018-04-10T10:09:29.904Z,9.20
2018-04-10T10:11:57.425Z,9.80
2018-04-10T10:14:24.924Z,9.60
2018-04-10T10:16:52.440Z,9.00
2018-04-10T10:19:19.940Z,8.63
2018-04-10T10:21:47.544Z,10.23
2018-04-10T10:24:15.104Z,10.20
2018-04-10T10:26:42.598Z,9.83
2018-04-10T10:29:10.124Z,11.60
2018-04-10T10:31:38.640Z,11.30
2018-04-10T10:36:50.333Z,12.67
2018-04-10T10:39:17.856Z,12.43
2018-04-10T10:41:45.357Z,12.07
2018-04-10T10:44:12.881Z,12.67
2018-04-10T10:46:40.391Z,13.80
2018-04-10T10:49:07.923Z,11.77
2018-04-10T10:51:35.428Z,13.67
2018-04-10T10:54:03.709Z,15.53
2018-04-10T10:56:32.000Z,23.60
2018-04-10T10:59:00.276Z,15.90
2018-04-10T11:01:28.569Z,16.13
2018-04-10T11:03:56.077Z,13.60
2018-04-10T11:06:23.604Z,15.60
2018-04-10T11:08:51.112Z,14.00
2018-04-10T11:11:19.404Z,12.87
2018-04-10T11:13:47.668Z,14.40
2018-04-10T11:16:15.955Z,15.30
2018-04-10T11:18:44.227Z,15.67
2018-04-10T11:21:12.492Z,14.90
2018-04-10T11:23:40.788Z,13.90
2018-04-10T11:26:09.060Z,14.23
2018-04-10T11:28:37.352Z,14.60
2018-04-10T11:31:04.849Z,14.23
2018-04-10T11:33:32.371Z,15.00
2018-04-10T11:35:59.873Z,14.83
2018-04-10T11:38:28.160Z,15.30
2018-04-10T11:40:55.660Z,15.30
2018-04-10T11:43:23.193Z,14.70
2018-04-10T11:45:50.697Z,15.30
2018-04-10T11:48:18.204Z,15.37
2018-04-10T11:50:45.731Z,16.67
2018-04-10T11:53:13.229Z,18.27
2018-04-10T11:55:40.757Z,17.40
2018-04-10T11:58:08.261Z,15.93
2018-04-10T12:00:36.548Z,15.43
2018-04-10T12:03:04.052Z,17.40
2018-04-10T12:05:31.577Z,19.07
2018-04-10T12:07:59.077Z,16.63
2018-04-10T12:10:26.600Z,18.27
2018-04-10T12:12:54.100Z,17.93
2018-04-10T12:15:21.600Z,18.40
2018-04-10T12:17:49.125Z,17.20
2018-04-10T12:20:16.628Z,18.30
2018-04-10T12:22:44.148Z,18.53
2018-04-10T12:25:11.645Z,17.57
2018-04-10T12:27:39.168Z,19.83
2018-04-10T12:30:07.432Z,20.40
2018-04-10T12:32:34.956Z,19.27
2018-04-10T12:35:02.456Z,18.23
2018-04-10T12:37:29.980Z,19.57
2018-04-10T12:39:57.484Z,19.90
2018-04-10T12:42:25.790Z,18.93
2018-04-10T12:44:53.296Z,19.47
2018-04-10T12:47:20.805Z,19.97
2018-04-10T12:49:48.332Z,19.53
2018-04-10T12:52:16.600Z,19.00
2018-04-10T12:54:44.124Z,20.00
2018-04-10T12:57:11.625Z,20.23
2018-04-10T12:59:39.912Z,19.60
2018-04-10T13:02:08.206Z,19.97
2018-04-10T13:04:35.756Z,21.57
2018-04-10T13:07:04.025Z,19.90
2018-04-10T13:09:32.316Z,19.50
2018-04-10T13:11:59.824Z,19.27
2018-04-10T13:14:27.330Z,19.53
2018-04-10T13:16:54.856Z,20.60
2018-04-10T13:19:23.124Z,20.47
2018-04-10T13:21:50.654Z,22.37
2018-04-10T13:24:18.155Z,19.80
2018-04-10T13:26:46.448Z,18.73
2018-04-10T13:29:14.716Z,19.10
2018-04-10T13:31:43.022Z,18.23
2018-04-10T13:34:10.524Z,20.60
2018-04-10T13:36:38.024Z,19.30
2018-04-10T13:39:06.362Z,18.93
2018-04-10T13:41:33.868Z,19.87
2018-04-10T13:44:01.388Z,17.87
2018-04-10T13:46:28.905Z,18.47
2018-04-10T13:48:56.430Z,18.83
2018-04-10T13:51:24.696Z,19.80
2018-04-10T13:53:52.984Z,20.33
2018-04-10T13:56:21.252Z,19.27
2018-04-10T13:58:49.520Z,19.00
2018-04-10T14:01:17.047Z,17.77
2018-04-10T14:03:44.575Z,18.17
2018-04-10T14:06:12.101Z,17.73
2018-04-10T14:08:40.372Z,19.23
2018-04-10T14:11:08.676Z,18.33
2018-04-10T14:13:36.176Z,18.37
2018-04-10T14:16:03.705Z,18.30
2018-04-10T14:18:31.203Z,19.53
2018-04-10T14:20:58.713Z,20.00
2018-04-10T14:23:26.244Z,19.63
2018-04-10T14:25:53.746Z,17.70
2018-04-10T14:28:21.268Z,18.30
2018-04-10T14:30:49.536Z,18.60
2018-04-10T14:33:17.064Z,18.57
2018-04-10T14:35:44.567Z,19.00
2018-04-10T14:38:12.852Z,17.67
2018-04-10T14:40:41.119Z,17.90
2018-04-10T14:43:09.392Z,18.60
2018-04-10T14:45:37.687Z,18.13
2018-04-10T14:48:05.200Z,18.37
2018-04-10T14:50:32.763Z,19.47
2018-04-10T14:53:00.268Z,18.03
2018-04-10T14:55:27.800Z,19.17
2018-04-10T14:57:56.067Z,19.33
2018-04-10T15:00:23.597Z,19.57
2018-04-10T15:02:51.115Z,18.80
2018-04-10T15:05:18.640Z,19.00
2018-04-10T15:07:46.141Z,19.90
2018-04-10T15:10:13.710Z,19.00
2018-04-10T15:12:41.239Z,48.40
2018-04-10T15:15:09.508Z,36.00
2018-04-10T15:17:37.804Z,21.10
2018-04-10T15:20:05.300Z,19.80
2018-04-10T15:22:32.824Z,18.97
2018-04-10T15:25:00.326Z,21.13
2018-04-10T15:27:27.848Z,20.93
2018-04-10T15:29:55.348Z,21.90
2018-04-10T15:32:22.872Z,20.70
2018-04-10T15:34:50.377Z,21.83
2018-04-10T15:37:17.880Z,21.73
2018-04-10T15:39:45.404Z,20.90
2018-04-10T15:42:13.672Z,21.47
2018-04-10T15:44:41.201Z,21.30
2018-04-10T15:47:08.751Z,20.67
2018-04-10T15:49:36.255Z,19.23
2018-04-10T15:52:03.751Z,19.70
2018-04-10T15:54:31.276Z,18.97
2018-04-10T15:56:58.782Z,19.13
2018-04-10T15:59:26.311Z,18.83
2018-04-10T16:01:54.581Z,18.90
2018-04-10T16:04:22.852Z,18.93
2018-04-10T16:06:51.142Z,19.90
2018-04-10T16:09:19.408Z,20.23
2018-04-10T16:11:47.705Z,19.77
2018-04-10T16:14:15.208Z,18.50
2018-04-10T16:16:42.732Z,19.70
2018-04-10T16:19:10.231Z,17.83
2018-04-10T16:21:37.756Z,16.93
2018-04-10T16:24:05.261Z,17.67
2018-04-10T16:26:32.783Z,17.87
2018-04-10T16:29:00.284Z,18.47
2018-04-10T16:31:27.792Z,17.50
2018-04-10T16:33:55.346Z,16.63
2018-04-10T16:36:22.841Z,17.37
2018-04-10T16:38:50.368Z,18.07
2018-04-10T16:43:43.016Z,17.67
2018-04-10T16:46:10.512Z,17.87
2018-04-10T16:48:38.032Z,17.20
2018-04-10T16:51:05.536Z,18.00
2018-04-10T16:53:33.062Z,17.13
2018-04-10T16:56:00.573Z,17.43
2018-04-10T16:58:28.068Z,17.20
2018-04-10T17:00:55.596Z,20.20
2018-04-10T17:03:23.096Z,17.77
2018-04-10T17:05:50.616Z,15.53
2018-04-10T17:08:18.886Z,15.07
2018-04-10T17:10:46.408Z,15.57
2018-04-10T17:13:13.911Z,14.40
2018-04-10T17:15:42.204Z,15.03
2018-04-10T17:18:10.468Z,16.13
2018-04-10T17:20:38.757Z,15.40
2018-04-10T17:23:07.024Z,15.37
2018-04-10T17:25:35.292Z,15.67
2018-04-10T17:28:03.580Z,15.27
2018-04-10T17:30:31.844Z,14.97
2018-04-10T17:33:00.133Z,15.90
2018-04-10T17:35:28.397Z,15.90
2018-04-10T17:37:56.684Z,15.17
2018-04-10T17:40:24.956Z,14.83
2018-04-10T17:42:53.245Z,14.60
2018-04-10T17:45:21.513Z,17.53
2018-04-10T17:47:49.804Z,17.10
2018-04-10T17:50:17.304Z,15.87
2018-04-10T17:52:44.804Z,16.87
2018-04-10T17:55:13.091Z,93.90
2018-04-10T17:57:41.357Z,12.67
2018-04-10T18:00:09.640Z,8.53
2018-04-10T18:02:37.900Z,7.17
2018-04-10T18:05:06.180Z,7.30
2018-04-10T18:07:34.440Z,7.10
2018-04-10T18:10:01.952Z,6.67
2018-04-10T18:12:29.454Z,6.07
2018-04-10T18:14:56.969Z,5.80
2018-04-10T18:17:24.464Z,5.63
2018-04-10T18:19:51.964Z,5.90
2018-04-10T18:22:20.249Z,5.90
2018-04-10T18:24:47.746Z,5.80
2018-04-10T18:27:15.259Z,6.07
2018-04-10T18:29:43.528Z,5.57
2018-04-10T18:32:11.812Z,6.27
2018-04-10T18:34:40.080Z,6.00
2018-04-10T18:37:08.360Z,6.07
2018-04-10T18:39:36.616Z,5.63
2018-04-10T18:42:04.130Z,3.77
2018-04-10T18:44:31.669Z,3.70
2018-04-10T18:46:59.912Z,2.90
2018-04-10T18:49:27.428Z,3.20
2018-04-10T18:51:54.920Z,3.07
2018-04-10T18:54:22.435Z,3.03
2018-04-10T18:56:49.937Z,14.67
2018-04-10T18:59:18.216Z,2.77
2018-04-10T19:01:47.225Z,3.27
2018-04-10T19:04:15.505Z,2.90
2018-04-10T19:06:43.760Z,3.40
2018-04-10T19:09:11.252Z,3.40
2018-04-10T19:11:38.771Z,3.60
2018-04-10T19:14:06.260Z,3.90
2018-04-10T19:16:34.549Z,4.60
2018-04-10T19:19:02.041Z,5.00
2018-04-10T19:21:29.560Z,4.93
2018-04-10T19:23:57.820Z,5.83
2018-04-10T19:26:26.105Z,6.70
2018-04-10T19:28:54.364Z,6.20
2018-04-10T19:31:21.856Z,6.23
2018-04-10T19:33:49.372Z,5.63
2018-04-10T19:36:16.869Z,6.30
2018-04-10T19:38:44.389Z,6.53
2018-04-10T19:41:11.880Z,6.70
2018-04-10T19:43:40.161Z,5.37
2018-04-10T19:46:07.676Z,4.90
2018-04-10T19:48:35.193Z,5.27
2018-04-10T19:51:02.689Z,6.00
2018-04-10T19:53:30.187Z,5.60
2018-04-10T19:55:58.471Z,5.30
2018-04-10T19:58:25.974Z,6.10
2018-04-10T20:00:53.488Z,4.40
2018-04-10T20:03:20.976Z,4.70
2018-04-10T20:05:48.489Z,5.40
2018-04-10T20:08:16.744Z,5.20
2018-04-10T20:10:44.256Z,4.50
2018-04-10T20:13:11.744Z,4.17
2018-04-10T20:15:39.295Z,3.80
2018-04-10T20:18:06.787Z,4.50
2018-04-10T20:20:34.332Z,4.67
2018-04-10T20:23:01.844Z,3.80
2018-04-10T20:25:29.340Z,4.20
2018-04-10T20:27:56.856Z,4.80
2018-04-10T20:30:24.356Z,9.03
2018-04-10T20:32:51.872Z,3.40
2018-04-10T20:35:19.368Z,2.90
2018-04-10T20:37:46.883Z,3.00
2018-04-10T20:40:14.376Z,3.00
2018-04-10T20:42:41.864Z,3.13
2018-04-10T20:45:09.380Z,3.27
2018-04-10T20:47:36.879Z,3.03
2018-04-10T20:50:04.392Z,3.33
2018-04-10T20:52:31.887Z,2.53
2018-04-10T20:54:59.400Z,3.20
2018-04-10T20:57:26.888Z,2.67
2018-04-10T20:59:54.407Z,3.20
2018-04-10T21:02:21.899Z,2.77
2018-04-10T21:04:49.389Z,3.20
2018-04-10T21:07:16.908Z,3.20
2018-04-10T21:09:44.404Z,2.80
2018-04-10T21:12:11.917Z,2.70
2018-04-10T21:14:39.409Z,2.80
2018-04-10T21:17:06.924Z,2.67
2018-04-10T21:19:34.416Z,2.67
2018-04-10T21:22:01.934Z,2.93
2018-04-10T21:24:29.434Z,2.77
2018-04-10T21:26:56.924Z,2.60
2018-04-10T21:29:25.208Z,2.90
2018-04-10T21:31:53.464Z,3.50
2018-04-10T21:34:20.977Z,3.30
2018-04-10T21:36:48.468Z,3.13
2018-04-10T21:39:15.981Z,2.97
2018-04-10T21:41:43.471Z,2.73
2018-04-10T21:44:11.010Z,3.00
2018-04-10T21:46:38.501Z,2.93
2018-04-10T21:49:05.996Z,2.90
2018-04-10T21:51:34.280Z,2.70
2018-04-10T21:54:02.536Z,3.20
2018-04-10T21:56:30.824Z,3.20
2018-04-10T21:58:59.086Z,3.20
2018-04-10T22:01:26.600Z,2.80
2018-04-10T22:03:54.096Z,3.43
2018-04-10T22:06:21.616Z,3.20
2018-04-10T22:08:49.141Z,2.90
2018-04-10T22:11:16.612Z,2.97
2018-04-10T22:13:44.124Z,3.30
2018-04-10T22:16:11.624Z,3.07
2018-04-10T22:18:39.141Z,3.17
2018-04-10T22:21:06.637Z,3.30
2018-04-10T22:23:34.923Z,2.83
2018-04-10T22:26:03.176Z,3.23
2018-04-10T22:28:30.692Z,3.63
2018-04-10T22:30:58.184Z,3.13
2018-04-10T22:33:25.668Z,2.97
2018-04-10T22:35:53.184Z,3.07
2018-04-10T22:38:21.450Z,3.13
2018-04-10T22:40:48.968Z,3.57
2018-04-10T22:43:16.456Z,3.10
2018-04-10T22:45:43.978Z,3.00
2018-04-10T22:48:11.472Z,3.20
2018-04-10T22:50:39.039Z,3.33
2018-04-10T22:53:06.508Z,3.63
2018-04-10T22:55:35.522Z,3.63
2018-04-10T22:58:03.805Z,3.73
2018-04-10T23:03:26.857Z,3.67
2018-04-10T23:05:55.125Z,3.30
2018-04-10T23:08:22.649Z,4.07
2018-04-10T23:10:50.144Z,3.90
2018-04-10T23:13:17.660Z,3.83
2018-04-10T23:15:45.157Z,4.40
2018-04-10T23:18:12.657Z,3.83
2018-04-10T23:20:40.945Z,3.80
2018-04-10T23:23:09.209Z,4.00
2018-04-10T23:25:37.497Z,4.07
2018-04-10T23:28:05.757Z,4.33
2018-04-10T23:30:33.279Z,4.27
2018-04-10T23:33:00.777Z,4.40
2018-04-10T23:35:28.297Z,4.27
2018-04-10T23:37:55.789Z,4.60
2018-04-10T23:40:23.304Z,4.60
2018-04-10T23:42:50.805Z,4.30
2018-04-10T23:45:18.300Z,3.90
2018-04-10T23:47:46.580Z,4.47
2018-04-10T23:50:14.077Z,4.40
2018-04-10T23:52:41.596Z,4.07
2018-04-10T23:55:09.090Z,4.60
2018-04-10T23:57:36.610Z,4.63
